createdAt,value
2018-05-23T00:01:09.349Z,31.23
2018-05-23T00:03:37.012Z,26.83
2018-05-23T00:06:04.626Z,26.63
2018-05-23T00:08:32.277Z,28.40
2018-05-23T00:10:59.912Z,27.40
2018-05-23T00:13:27.513Z,28.17
2018-05-23T00:15:55.177Z,26.60
2018-05-23T00:18:22.772Z,27.27
2018-05-23T00:20:50.421Z,29.37
2018-05-23T00:23:18.033Z,30.13
2018-05-23T00:25:45.696Z,33.03
2018-05-23T00:28:13.337Z,31.70
2018-05-23T00:30:40.982Z,34.67
2018-05-23T00:33:08.585Z,34.77
2018-05-23T00:35:36.223Z,31.90
2018-05-23T00:38:03.929Z,33.70
2018-05-23T00:40:31.578Z,34.77
2018-05-23T00:42:59.181Z,31.13
2018-05-23T00:45:26.840Z,34.43
2018-05-23T00:47:54.446Z,35.27
2018-05-23T00:50:22.300Z,36.77
2018-05-23T00:52:50.005Z,35.23
2018-05-23T00:55:29.169Z,36.60
2018-05-23T00:57:56.768Z,37.93
2018-05-23T01:00:24.429Z,32.93
2018-05-23T01:02:52.056Z,34.63
2018-05-23T01:05:19.739Z,32.63
2018-05-23T01:07:47.372Z,33.53
2018-05-23T01:10:15.013Z,36.20
2018-05-23T01:12:42.653Z,40.30
2018-05-23T01:15:10.271Z,34.10
2018-05-23T01:17:37.909Z,33.87
2018-05-23T01:20:05.512Z,37.13
2018-05-23T01:22:33.154Z,35.73
2018-05-23T01:25:00.758Z,37.90
2018-05-23T01:27:28.436Z,34.40
2018-05-23T01:29:56.076Z,40.03
2018-05-23T01:32:23.765Z,38.90
2018-05-23T01:34:51.398Z,36.27
2018-05-23T01:37:19.128Z,35.90
2018-05-23T01:39:46.785Z,37.07
2018-05-23T01:42:14.451Z,36.53
2018-05-23T01:44:42.122Z,39.87
2018-05-23T01:47:09.719Z,41.10
2018-05-23T01:49:37.369Z,36.70
2018-05-23T01:52:04.986Z,36.77
2018-05-23T01:54:32.745Z,36.40
2018-05-23T01:57:00.348Z,34.90
2018-05-23T01:59:27.990Z,35.47
2018-05-23T02:01:55.639Z,36.80
2018-05-23T02:04:23.265Z,34.77
2018-05-23T02:06:50.873Z,32.87
2018-05-23T02:09:18.506Z,37.33
2018-05-23T02:11:46.116Z,36.67
2018-05-23T02:14:13.748Z,35.53
2018-05-23T02:16:41.378Z,36.50
2018-05-23T02:19:09.008Z,37.03
2018-05-23T02:21:36.697Z,35.73
2018-05-23T02:24:04.328Z,36.00
2018-05-23T02:26:31.924Z,35.37
2018-05-23T02:28:59.561Z,34.27
2018-05-23T02:31:27.166Z,34.47
2018-05-23T02:33:54.846Z,36.10
2018-05-23T02:36:22.459Z,37.37
2018-05-23T02:38:50.074Z,37.57
2018-05-23T02:41:17.808Z,38.07
2018-05-23T02:43:45.450Z,38.10
2018-05-23T02:46:18.522Z,39.50
2018-05-23T02:48:46.139Z,36.60
2018-05-23T02:51:13.930Z,36.97
2018-05-23T02:53:41.509Z,37.90
2018-05-23T02:56:09.163Z,41.00
2018-05-23T02:58:36.770Z,37.97
2018-05-23T03:01:04.397Z,39.57
2018-05-23T03:03:32.029Z,42.00
2018-05-23T03:05:59.687Z,40.50
2018-05-23T03:08:27.297Z,41.47
2018-05-23T03:10:54.941Z,41.07
2018-05-23T03:13:22.609Z,38.53
2018-05-23T03:15:50.269Z,37.43
2018-05-23T03:18:17.869Z,40.53
2018-05-23T03:20:45.597Z,38.23
2018-05-23T03:23:13.207Z,40.27
2018-05-23T03:25:40.852Z,40.97
2018-05-23T03:28:08.489Z,41.33
2018-05-23T03:30:36.145Z,40.47
2018-05-23T03:33:03.764Z,40.90
2018-05-23T03:35:31.373Z,38.47
2018-05-23T03:37:59.005Z,41.30
2018-05-23T03:40:26.629Z,42.80
2018-05-23T03:42:54.296Z,42.57
2018-05-23T03:45:21.901Z,42.77
2018-05-23T03:47:49.542Z,40.70
2018-05-23T03:50:17.140Z,38.90
2018-05-23T03:52:44.822Z,36.20
2018-05-23T03:55:12.465Z,36.40
2018-05-23T03:57:40.212Z,36.17
2018-05-23T04:00:19.355Z,36.50
2018-05-23T04:02:58.680Z,38.63
2018-05-23T04:05:37.962Z,60.40
2018-05-23T04:08:07.378Z,47.27
2018-05-23T04:10:34.968Z,34.50
2018-05-23T04:13:02.620Z,35.10
2018-05-23T04:15:30.277Z,33.97
2018-05-23T04:17:57.876Z,35.70
2018-05-23T04:20:25.469Z,31.53
2018-05-23T04:22:53.110Z,28.30
2018-05-23T04:25:20.729Z,25.30
2018-05-23T04:27:48.389Z,29.23
2018-05-23T04:30:16.081Z,26.73
2018-05-23T04:32:43.716Z,28.87
2018-05-23T04:35:11.336Z,28.10
2018-05-23T04:37:38.984Z,30.00
2018-05-23T04:40:06.612Z,25.83
2018-05-23T04:42:34.363Z,27.57
2018-05-23T04:45:01.970Z,28.93
2018-05-23T04:47:29.620Z,26.07
2018-05-23T04:49:57.283Z,27.23
2018-05-23T04:52:24.908Z,25.10
2018-05-23T04:54:52.541Z,20.83
2018-05-23T04:57:20.146Z,22.40
2018-05-23T04:59:47.782Z,24.00
2018-05-23T05:02:15.397Z,23.80
2018-05-23T05:04:43.063Z,20.07
2018-05-23T05:07:10.677Z,20.40
2018-05-23T05:09:38.351Z,22.27
2018-05-23T05:12:05.969Z,23.60
2018-05-23T05:14:33.598Z,23.97
2018-05-23T05:17:01.218Z,23.30
2018-05-23T05:19:29.334Z,23.77
2018-05-23T05:21:56.965Z,26.57
2018-05-23T05:24:24.636Z,38.27
2018-05-23T05:26:52.274Z,25.30
2018-05-23T05:29:19.928Z,24.63
2018-05-23T05:31:47.541Z,25.43
2018-05-23T05:34:15.149Z,24.37
2018-05-23T05:36:42.783Z,23.20
2018-05-23T05:39:10.518Z,23.27
2018-05-23T05:41:38.075Z,18.50
2018-05-23T05:44:05.689Z,18.90
2018-05-23T05:46:33.324Z,17.30
2018-05-23T05:49:00.948Z,17.60
2018-05-23T05:51:28.585Z,16.23
2018-05-23T05:53:56.192Z,15.50
2018-05-23T05:56:23.939Z,15.97
2018-05-23T05:58:51.541Z,15.60
2018-05-23T06:01:19.359Z,15.77
2018-05-23T06:03:47.042Z,15.33
2018-05-23T06:06:14.799Z,14.60
2018-05-23T06:08:42.437Z,14.60
2018-05-23T06:11:10.079Z,14.17
2018-05-23T06:13:37.783Z,14.80
2018-05-23T06:16:05.400Z,13.00
2018-05-23T06:18:33.790Z,13.97
2018-05-23T06:21:01.415Z,19.37
2018-05-23T06:23:29.080Z,23.07
2018-05-23T06:25:56.685Z,22.13
2018-05-23T06:28:24.329Z,22.00
2018-05-23T06:30:51.944Z,21.20
2018-05-23T06:33:19.596Z,23.37
2018-05-23T06:35:47.240Z,21.40
2018-05-23T06:38:14.889Z,20.73
2018-05-23T06:40:42.560Z,17.40
2018-05-23T06:43:10.202Z,18.70
2018-05-23T06:45:37.826Z,17.40
2018-05-23T06:48:05.595Z,21.87
2018-05-23T06:50:33.256Z,22.27
2018-05-23T06:53:00.860Z,24.27
2018-05-23T06:55:28.555Z,24.77
2018-05-23T06:57:56.240Z,20.50
2018-05-23T07:00:24.083Z,22.00
2018-05-23T07:02:51.706Z,21.83
2018-05-23T07:05:19.426Z,21.77
2018-05-23T07:07:47.076Z,20.13
2018-05-23T07:10:14.717Z,18.13
2018-05-23T07:12:42.394Z,16.50
2018-05-23T07:15:10.024Z,15.63
2018-05-23T07:17:37.616Z,16.13
2018-05-23T07:20:05.267Z,14.60
2018-05-23T07:22:32.883Z,16.80
2018-05-23T07:25:00.589Z,16.10
2018-05-23T07:27:28.192Z,15.63
2018-05-23T07:29:56.068Z,15.87
2018-05-23T07:32:23.672Z,13.30
2018-05-23T07:34:51.377Z,13.13
2018-05-23T07:37:18.965Z,12.97
2018-05-23T07:39:46.624Z,14.80
2018-05-23T07:42:14.226Z,16.00
2018-05-23T07:44:41.889Z,18.40
2018-05-23T07:47:09.734Z,17.40
2018-05-23T07:49:37.332Z,17.40
2018-05-23T07:52:04.972Z,16.90
2018-05-23T07:54:32.658Z,17.73
2018-05-23T07:57:00.304Z,16.80
2018-05-23T07:59:27.915Z,16.80
2018-05-23T08:01:55.566Z,17.60
2018-05-23T08:04:23.196Z,16.07
2018-05-23T08:06:50.857Z,17.20
2018-05-23T08:09:18.471Z,16.87
2018-05-23T08:11:46.135Z,16.97
2018-05-23T08:14:13.760Z,16.30
2018-05-23T08:16:41.437Z,16.17
2018-05-23T08:19:09.084Z,16.50
2018-05-23T08:21:36.736Z,15.87
2018-05-23T08:24:04.389Z,16.47
2018-05-23T08:26:32.006Z,17.20
2018-05-23T08:28:59.657Z,17.07
2018-05-23T08:31:27.281Z,15.03
2018-05-23T08:33:54.933Z,12.80
2018-05-23T08:36:22.590Z,16.43
2018-05-23T08:38:50.195Z,14.33
2018-05-23T08:41:17.800Z,13.77
2018-05-23T08:43:45.437Z,13.57
2018-05-23T08:46:13.060Z,14.13
2018-05-23T08:48:40.713Z,14.23
2018-05-23T08:51:08.304Z,12.17
2018-05-23T08:53:35.910Z,13.90
2018-05-23T08:56:03.556Z,11.80
2018-05-23T08:58:31.193Z,11.57
2018-05-23T09:00:58.873Z,11.00
2018-05-23T09:03:26.471Z,10.87
2018-05-23T09:05:54.119Z,8.70
2018-05-23T09:08:21.760Z,11.70
2018-05-23T09:10:49.404Z,10.27
2018-05-23T09:13:17.024Z,8.60
2018-05-23T09:15:44.656Z,10.27
2018-05-23T09:18:12.255Z,11.03
2018-05-23T09:20:39.880Z,9.73
2018-05-23T09:23:07.495Z,8.33
2018-05-23T09:25:35.153Z,9.23
2018-05-23T09:28:02.750Z,8.03
2018-05-23T09:30:30.362Z,7.63
2018-05-23T09:32:58.027Z,7.03
2018-05-23T09:35:25.624Z,8.23
2018-05-23T09:37:53.280Z,7.30
2018-05-23T09:40:20.902Z,5.63
2018-05-23T09:42:48.520Z,6.50
2018-05-23T09:45:16.214Z,6.73
2018-05-23T09:47:43.777Z,6.33
2018-05-23T09:50:11.404Z,6.70
2018-05-23T09:52:39.101Z,7.13
2018-05-23T09:55:06.751Z,5.80
2018-05-23T09:57:34.384Z,5.90
2018-05-23T10:00:02.091Z,6.77
2018-05-23T10:02:29.760Z,5.30
2018-05-23T10:04:57.373Z,6.77
2018-05-23T10:07:25.089Z,5.87
2018-05-23T10:09:52.703Z,5.87
2018-05-23T10:12:20.404Z,5.20
2018-05-23T10:14:48.047Z,4.90
2018-05-23T10:17:15.647Z,5.27
2018-05-23T10:19:43.263Z,5.77
2018-05-23T10:22:10.893Z,5.13
2018-05-23T10:24:38.530Z,4.37
2018-05-23T10:27:06.112Z,4.80
2018-05-23T10:29:33.747Z,4.90
2018-05-23T10:32:01.348Z,5.93
2018-05-23T10:34:28.987Z,4.83
2018-05-23T10:36:56.596Z,4.70
2018-05-23T10:39:24.329Z,5.90
2018-05-23T10:41:51.930Z,5.03
2018-05-23T10:44:19.588Z,4.40
2018-05-23T10:46:47.225Z,5.90
2018-05-23T10:49:14.839Z,4.80
2018-05-23T10:51:42.480Z,5.70
2018-05-23T10:54:10.108Z,5.13
2018-05-23T10:56:37.747Z,4.97
2018-05-23T10:59:05.329Z,6.37
2018-05-23T11:01:32.976Z,4.60
2018-05-23T11:04:00.564Z,5.03
2018-05-23T11:06:28.246Z,5.17
2018-05-23T11:08:55.906Z,5.70
2018-05-23T11:11:23.489Z,5.43
2018-05-23T11:13:51.133Z,6.73
2018-05-23T11:16:18.743Z,5.00
2018-05-23T11:18:46.444Z,5.60
2018-05-23T11:21:14.073Z,5.50
2018-05-23T11:23:41.672Z,5.10
2018-05-23T11:26:09.994Z,15.07
2018-05-23T11:28:37.647Z,5.27
2018-05-23T11:31:05.296Z,5.60
2018-05-23T11:33:32.951Z,5.43
2018-05-23T11:36:00.588Z,5.60
2018-05-23T11:38:28.180Z,6.03
2018-05-23T11:40:55.839Z,6.00
2018-05-23T11:43:23.462Z,5.63
2018-05-23T11:45:51.189Z,5.17
2018-05-23T11:48:18.055Z,6.50
2018-05-23T11:50:45.733Z,6.40
2018-05-23T11:53:13.425Z,6.10
2018-05-23T11:55:41.056Z,10.67
2018-05-23T11:58:08.712Z,7.30
2018-05-23T12:00:36.337Z,8.00
2018-05-23T12:03:03.964Z,10.00
2018-05-23T12:05:31.548Z,6.40
2018-05-23T12:07:59.189Z,6.40
2018-05-23T12:10:26.800Z,6.40
2018-05-23T12:12:54.437Z,7.30
2018-05-23T12:15:22.049Z,6.60
2018-05-23T12:17:49.700Z,6.53
2018-05-23T12:20:17.349Z,6.50
2018-05-23T12:22:44.936Z,9.43
2018-05-23T12:25:12.720Z,7.43
2018-05-23T12:27:40.310Z,7.70
2018-05-23T12:30:07.973Z,7.50
2018-05-23T12:32:35.570Z,6.90
2018-05-23T12:35:03.241Z,7.63
2018-05-23T12:37:30.869Z,6.87
2018-05-23T12:39:58.769Z,6.13
2018-05-23T12:42:26.520Z,7.37
2018-05-23T12:44:54.158Z,7.90
2018-05-23T12:47:21.752Z,11.00
2018-05-23T12:49:49.561Z,9.53
2018-05-23T12:52:17.193Z,11.57
2018-05-23T12:54:44.792Z,7.83
2018-05-23T12:57:12.431Z,7.10
2018-05-23T12:59:40.284Z,7.50
2018-05-23T13:02:07.912Z,6.67
2018-05-23T13:04:35.544Z,6.90
2018-05-23T13:07:03.174Z,7.77
2018-05-23T13:09:30.782Z,7.50
2018-05-23T13:11:58.531Z,5.77
2018-05-23T13:14:26.161Z,7.30
2018-05-23T13:16:53.796Z,6.33
2018-05-23T13:19:21.428Z,6.60
2018-05-23T13:21:49.076Z,5.93
2018-05-23T13:24:16.682Z,7.80
2018-05-23T13:26:44.315Z,6.97
2018-05-23T13:29:11.908Z,9.00
2018-05-23T13:31:39.541Z,8.50
2018-05-23T13:34:07.137Z,8.10
2018-05-23T13:36:34.737Z,7.90
2018-05-23T13:39:02.467Z,7.33
2018-05-23T13:41:30.049Z,7.43
2018-05-23T13:43:57.709Z,6.47
2018-05-23T13:46:25.321Z,6.77
2018-05-23T13:48:52.964Z,7.10
2018-05-23T13:51:20.637Z,6.83
2018-05-23T13:53:48.285Z,6.23
2018-05-23T13:56:15.889Z,6.57
2018-05-23T13:58:43.533Z,6.63
2018-05-23T14:01:11.142Z,6.53
2018-05-23T14:03:38.762Z,7.20
2018-05-23T14:06:06.365Z,7.10
2018-05-23T14:08:34.023Z,7.00
2018-05-23T14:11:01.616Z,7.00
2018-05-23T14:13:29.247Z,7.20
2018-05-23T14:15:56.859Z,7.60
2018-05-23T14:18:24.569Z,8.90
2018-05-23T14:20:52.164Z,8.23
2018-05-23T14:23:19.766Z,7.53
2018-05-23T14:25:47.409Z,9.07
2018-05-23T14:28:15.004Z,9.83
2018-05-23T14:30:42.647Z,17.17
2018-05-23T14:33:10.257Z,7.97
2018-05-23T14:35:37.898Z,8.97
2018-05-23T14:38:05.484Z,8.57
2018-05-23T14:40:33.121Z,9.13
2018-05-23T14:43:00.741Z,8.90
2018-05-23T14:45:28.465Z,10.27
2018-05-23T14:47:56.068Z,8.20
2018-05-23T14:50:23.687Z,9.20
2018-05-23T14:52:51.306Z,12.30
2018-05-23T14:55:18.950Z,8.93
2018-05-23T14:57:46.588Z,9.47
2018-05-23T15:00:14.298Z,8.83
2018-05-23T15:02:41.893Z,9.30
2018-05-23T15:05:09.717Z,9.40
2018-05-23T15:07:37.317Z,8.87
2018-05-23T15:10:05.046Z,9.67
2018-05-23T15:12:32.681Z,8.60
2018-05-23T15:15:00.284Z,9.77
2018-05-23T15:17:27.926Z,9.57
2018-05-23T15:19:55.678Z,8.57
2018-05-23T15:22:23.182Z,9.63
2018-05-23T15:24:50.774Z,9.63
2018-05-23T15:27:18.510Z,7.93
2018-05-23T15:29:45.987Z,7.97
2018-05-23T15:32:13.621Z,7.97
2018-05-23T15:34:41.259Z,8.60
2018-05-23T15:37:08.938Z,8.20
2018-05-23T15:39:36.609Z,9.23
2018-05-23T15:42:04.198Z,8.43
2018-05-23T15:44:31.877Z,7.70
2018-05-23T15:46:59.478Z,7.40
2018-05-23T15:49:27.214Z,7.13
2018-05-23T15:51:54.836Z,7.93
2018-05-23T15:54:22.496Z,9.03
2018-05-23T15:56:50.176Z,8.07
2018-05-23T15:59:17.745Z,8.87
2018-05-23T16:01:45.347Z,8.70
2018-05-23T16:04:12.980Z,8.90
2018-05-23T16:06:40.577Z,7.83
2018-05-23T16:09:08.284Z,9.73
2018-05-23T16:11:35.902Z,9.20
2018-05-23T16:14:03.522Z,7.70
2018-05-23T16:16:31.115Z,8.07
2018-05-23T16:18:58.741Z,8.83
2018-05-23T16:21:26.356Z,8.60
2018-05-23T16:23:53.988Z,7.73
2018-05-23T16:26:21.593Z,8.67
2018-05-23T16:28:49.256Z,7.73
2018-05-23T16:31:16.861Z,7.87
2018-05-23T16:33:44.469Z,8.87
2018-05-23T16:36:12.110Z,8.00
2018-05-23T16:38:39.747Z,8.43
2018-05-23T16:41:07.381Z,7.60
2018-05-23T16:43:35.004Z,8.67
2018-05-23T16:46:02.653Z,13.30
2018-05-23T16:48:30.293Z,11.90
2018-05-23T16:50:57.959Z,8.70
2018-05-23T16:53:25.564Z,8.10
2018-05-23T16:55:53.219Z,8.83
2018-05-23T16:58:20.827Z,8.57
2018-05-23T17:00:48.481Z,8.80
2018-05-23T17:03:16.093Z,7.90
2018-05-23T17:05:43.757Z,7.73
2018-05-23T17:08:11.606Z,7.97
2018-05-23T17:10:39.328Z,12.10
2018-05-23T17:13:06.925Z,8.03
2018-05-23T17:15:34.573Z,8.33
2018-05-23T17:18:02.195Z,8.20
2018-05-23T17:20:29.811Z,10.73
2018-05-23T17:22:57.458Z,9.37
2018-05-23T17:25:25.088Z,8.17
2018-05-23T17:27:52.721Z,7.80
2018-05-23T17:30:20.351Z,8.83
2018-05-23T17:32:48.028Z,7.20
2018-05-23T17:35:15.734Z,10.37
2018-05-23T17:37:43.371Z,8.57
2018-05-23T17:40:11.089Z,8.93
2018-05-23T17:42:38.706Z,10.90
2018-05-23T17:45:06.320Z,7.40
2018-05-23T17:47:34.006Z,10.37
2018-05-23T17:50:01.638Z,21.00
2018-05-23T17:52:29.342Z,15.10
2018-05-23T17:54:56.950Z,9.20
2018-05-23T17:57:24.598Z,7.77
2018-05-23T17:59:52.205Z,6.83
2018-05-23T18:02:19.862Z,6.70
2018-05-23T18:04:47.442Z,7.00
2018-05-23T18:07:15.077Z,7.20
2018-05-23T18:09:42.746Z,8.00
2018-05-23T18:12:10.416Z,7.73
2018-05-23T18:14:38.056Z,5.87
2018-05-23T18:17:05.680Z,6.70
2018-05-23T18:19:33.336Z,6.47
2018-05-23T18:22:00.952Z,5.93
2018-05-23T18:24:28.760Z,7.10
2018-05-23T18:26:56.345Z,5.73
2018-05-23T18:29:24.116Z,6.30
2018-05-23T18:31:51.714Z,6.30
2018-05-23T18:34:19.363Z,5.90
2018-05-23T18:36:46.998Z,6.33
2018-05-23T18:39:14.715Z,5.70
2018-05-23T18:41:42.325Z,5.70
2018-05-23T18:44:10.061Z,5.80
2018-05-23T18:46:37.654Z,6.37
2018-05-23T18:49:05.321Z,5.57
2018-05-23T18:51:32.941Z,5.23
2018-05-23T18:54:00.606Z,35.90
2018-05-23T18:56:28.361Z,28.40
2018-05-23T18:58:55.992Z,9.03
2018-05-23T19:01:23.637Z,6.40
2018-05-23T19:03:51.354Z,5.30
2018-05-23T19:06:19.074Z,6.23
2018-05-23T19:08:46.726Z,6.10
2018-05-23T19:11:14.358Z,5.43
2018-05-23T19:13:41.988Z,5.60
2018-05-23T19:16:09.638Z,4.40
2018-05-23T19:18:37.239Z,6.20
2018-05-23T19:21:04.889Z,5.80
2018-05-23T19:23:32.625Z,6.13
2018-05-23T19:26:00.270Z,5.13
2018-05-23T19:28:27.897Z,5.60
2018-05-23T19:30:55.536Z,4.70
2018-05-23T19:33:23.184Z,5.33
2018-05-23T19:35:50.822Z,4.90
2018-05-23T19:38:18.581Z,5.10
2018-05-23T19:40:46.288Z,33.93
2018-05-23T19:43:13.918Z,24.90
2018-05-23T19:45:41.565Z,12.00
2018-05-23T19:48:09.176Z,5.67
2018-05-23T19:50:36.902Z,6.30
2018-05-23T19:53:04.561Z,4.43
2018-05-23T19:55:32.212Z,8.10
2018-05-23T19:57:59.835Z,5.30
2018-05-23T20:00:27.517Z,4.80
2018-05-23T20:02:55.163Z,6.53
2018-05-23T20:05:22.811Z,4.90
2018-05-23T20:07:50.420Z,6.47
2018-05-23T20:10:18.137Z,4.90
2018-05-23T20:12:45.750Z,4.40
2018-05-23T20:15:13.361Z,6.17
2018-05-23T20:17:41.009Z,4.40
2018-05-23T20:20:08.610Z,4.17
2018-05-23T20:22:36.302Z,4.63
2018-05-23T20:25:03.913Z,5.40
2018-05-23T20:27:31.750Z,5.03
2018-05-23T20:29:59.365Z,5.27
2018-05-23T20:32:26.998Z,5.43
2018-05-23T20:34:54.620Z,4.63
2018-05-23T20:37:22.332Z,6.50
2018-05-23T20:39:49.934Z,4.70
2018-05-23T20:42:17.577Z,4.37
2018-05-23T20:44:45.192Z,4.90
2018-05-23T20:47:12.884Z,4.60
2018-05-23T20:49:40.589Z,4.17
2018-05-23T20:52:08.257Z,4.60
2018-05-23T20:54:35.866Z,5.80
2018-05-23T20:57:03.492Z,4.60
2018-05-23T20:59:31.175Z,4.33
2018-05-23T21:01:58.819Z,4.87
2018-05-23T21:04:26.444Z,4.00
2018-05-23T21:06:54.191Z,4.50
2018-05-23T21:09:21.799Z,4.60
2018-05-23T21:11:49.485Z,4.70
2018-05-23T21:14:17.141Z,5.03
2018-05-23T21:16:44.751Z,4.67
2018-05-23T21:19:12.420Z,4.63
2018-05-23T21:21:40.041Z,5.03
2018-05-23T21:24:07.691Z,5.40
2018-05-23T21:26:35.396Z,5.10
2018-05-23T21:29:03.041Z,4.03
2018-05-23T21:31:30.641Z,5.00
2018-05-23T21:33:58.280Z,4.60
2018-05-23T21:36:25.889Z,4.63
2018-05-23T21:38:53.518Z,4.87
2018-05-23T21:41:21.121Z,5.10
2018-05-23T21:43:48.783Z,4.60
2018-05-23T21:46:16.388Z,4.47
2018-05-23T21:48:44.136Z,4.70
2018-05-23T21:51:11.728Z,4.00
2018-05-23T21:53:39.325Z,4.57
2018-05-23T21:56:06.948Z,5.57
2018-05-23T21:58:34.555Z,4.70
2018-05-23T22:01:02.205Z,4.33
2018-05-23T22:03:29.823Z,5.03
2018-05-23T22:05:57.485Z,3.90
2018-05-23T22:08:25.168Z,4.57
2018-05-23T22:10:52.814Z,5.80
2018-05-23T22:13:20.427Z,3.87
2018-05-23T22:15:48.065Z,5.10
2018-05-23T22:18:15.749Z,5.07
2018-05-23T22:20:43.337Z,4.83
2018-05-23T22:23:11.028Z,3.90
2018-05-23T22:25:38.784Z,6.30
2018-05-23T22:28:06.400Z,4.43
2018-05-23T22:30:34.083Z,5.23
2018-05-23T22:33:01.656Z,4.60
2018-05-23T22:35:29.334Z,4.43
2018-05-23T22:37:56.953Z,4.90
2018-05-23T22:40:24.622Z,4.13
2018-05-23T22:42:52.266Z,5.20
2018-05-23T22:45:19.853Z,4.73
2018-05-23T22:47:47.497Z,5.13
2018-05-23T22:50:15.104Z,4.70
2018-05-23T22:52:42.731Z,5.43
2018-05-23T22:55:10.324Z,4.50
2018-05-23T22:57:37.988Z,4.93
2018-05-23T23:00:05.657Z,6.23
2018-05-23T23:02:33.376Z,5.37
2018-05-23T23:05:01.092Z,5.00
2018-05-23T23:07:28.750Z,5.83
2018-05-23T23:09:56.361Z,5.53
2018-05-23T23:12:23.999Z,6.40
2018-05-23T23:14:51.605Z,5.00
2018-05-23T23:17:19.223Z,5.50
2018-05-23T23:19:46.863Z,5.30
2018-05-23T23:22:26.089Z,5.53
2018-05-23T23:24:53.686Z,4.90
2018-05-23T23:27:21.337Z,5.10
2018-05-23T23:29:48.933Z,4.80
2018-05-23T23:32:16.599Z,5.07
2018-05-23T23:34:44.203Z,5.67
2018-05-23T23:37:11.813Z,4.93
2018-05-23T23:39:39.442Z,6.10
2018-05-23T23:42:07.095Z,5.30
2018-05-23T23:44:34.846Z,5.13
2018-05-23T23:47:02.385Z,7.50
2018-05-23T23:49:30.018Z,4.93
2018-05-23T23:51:57.613Z,6.37
2018-05-23T23:54:25.327Z,6.07
2018-05-23T23:56:52.917Z,5.30
2018-05-23T23:59:20.568Z,4.80
